Terminal Aerodrome Forecast
Issued by NWS

Home | Current Version | Previous Version | Text Only | Print | Product List | Glossary On
Versions: 1 2 3 4 5 6 7 8 9 10 11 12 13 14 15 16 17 18 19 20 21 22 23 24
000
FTAK31 PAFG 252324
TAFATA
TAF
PATA 252324Z 2600/2624 10006KT P6SM SCT010 OVC050
     FM260300 11010KT 6SM -RA BR BKN025 BKN035 OVC050
     FM261200 10006KT P6SM VCSH SCT025 BKN035 OVC050
     FM262100 17004KT P6SM OVC025=

USA.gov is the U.S. government's official web portal to all federal, state and local government web resources and services.